sensor_id;sensor_type;location;lat;lon;timestamp;P1;durP1;ratioP1;P2;durP2;ratioP2
76393;SDS011;65216;51.090;-115.352;2023-12-22T00:00:17;9.20;;;0.90;;
76393;SDS011;65216;51.090;-115.352;2023-12-22T00:02:44;6.60;;;0.80;;
76393;SDS011;65216;51.090;-115.352;2023-12-22T00:05:11;10.30;;;0.90;;
76393;SDS011;65216;51.090;-115.352;2023-12-22T00:07:38;5.00;;;0.80;;
76393;SDS011;65216;51.090;-115.352;2023-12-22T00:10:08;6.40;;;1.00;;
76393;SDS011;65216;51.090;-115.352;2023-12-22T00:12:35;9.80;;;1.30;;
76393;SDS011;65216;51.090;-115.352;2023-12-22T00:15:05;9.90;;;1.10;;
76393;SDS011;65216;51.090;-115.352;2023-12-22T00:17:32;9.90;;;1.10;;
76393;SDS011;65216;51.090;-115.352;2023-12-22T00:20:04;13.30;;;2.00;;
76393;SDS011;65216;51.090;-115.352;2023-12-22T00:22:32;9.60;;;1.20;;
76393;SDS011;65216;51.090;-115.352;2023-12-22T00:25:00;10.50;;;1.20;;
76393;SDS011;65216;51.090;-115.352;2023-12-22T00:27:29;12.70;;;1.30;;
76393;SDS011;65216;51.090;-115.352;2023-12-22T00:29:56;13.20;;;1.30;;
76393;SDS011;65216;51.090;-115.352;2023-12-22T00:32:23;12.20;;;1.30;;
76393;SDS011;65216;51.090;-115.352;2023-12-22T00:34:51;8.10;;;1.40;;
76393;SDS011;65216;51.090;-115.352;2023-12-22T00:37:17;12.90;;;1.50;;
76393;SDS011;65216;51.090;-115.352;2023-12-22T00:39:44;15.10;;;2.20;;
76393;SDS011;65216;51.090;-115.352;2023-12-22T00:42:11;13.00;;;1.70;;
76393;SDS011;65216;51.090;-115.352;2023-12-22T00:44:38;14.80;;;1.60;;
76393;SDS011;65216;51.090;-115.352;2023-12-22T00:47:06;15.60;;;1.40;;
76393;SDS011;65216;51.090;-115.352;2023-12-22T00:49:33;15.30;;;1.50;;
76393;SDS011;65216;51.090;-115.352;2023-12-22T00:52:00;16.90;;;2.00;;
76393;SDS011;65216;51.090;-115.352;2023-12-22T00:54:27;12.90;;;2.00;;
76393;SDS011;65216;51.090;-115.352;2023-12-22T00:56:57;18.90;;;1.90;;
76393;SDS011;65216;51.090;-115.352;2023-12-22T00:59:27;16.60;;;1.40;;
76393;SDS011;65216;51.090;-115.352;2023-12-22T01:01:55;15.00;;;1.70;;
76393;SDS011;65216;51.090;-115.352;2023-12-22T01:04:21;17.30;;;1.70;;
76393;SDS011;65216;51.090;-115.352;2023-12-22T01:06:48;15.60;;;1.70;;
76393;SDS011;65216;51.090;-115.352;2023-12-22T01:09:15;13.70;;;1.70;;
76393;SDS011;65216;51.090;-115.352;2023-12-22T01:11:42;21.00;;;2.30;;
76393;SDS011;65216;51.090;-115.352;2023-12-22T01:14:09;18.30;;;2.40;;
76393;SDS011;65216;51.090;-115.352;2023-12-22T01:16:36;18.30;;;2.10;;
76393;SDS011;65216;51.090;-115.352;2023-12-22T01:19:03;17.00;;;1.90;;
76393;SDS011;65216;51.090;-115.352;2023-12-22T01:21:30;24.60;;;2.40;;
76393;SDS011;65216;51.090;-115.352;2023-12-22T01:23:57;16.80;;;2.00;;
76393;SDS011;65216;51.090;-115.352;2023-12-22T01:26:26;18.80;;;1.80;;
76393;SDS011;65216;51.090;-115.352;2023-12-22T01:28:53;26.70;;;2.20;;
76393;SDS011;65216;51.090;-115.352;2023-12-22T01:31:23;23.00;;;2.50;;
76393;SDS011;65216;51.090;-115.352;2023-12-22T01:33:50;16.20;;;2.10;;
76393;SDS011;65216;51.090;-115.352;2023-12-22T01:36:19;31.60;;;3.40;;
76393;SDS011;65216;51.090;-115.352;2023-12-22T01:38:46;15.00;;;2.30;;
76393;SDS011;65216;51.090;-115.352;2023-12-22T01:41:14;22.10;;;2.30;;
76393;SDS011;65216;51.090;-115.352;2023-12-22T01:43:40;22.40;;;2.50;;
76393;SDS011;65216;51.090;-115.352;2023-12-22T01:46:10;23.50;;;3.00;;
76393;SDS011;65216;51.090;-115.352;2023-12-22T01:48:39;21.00;;;2.40;;
76393;SDS011;65216;51.090;-115.352;2023-12-22T01:51:07;19.20;;;2.20;;
76393;SDS011;65216;51.090;-115.352;2023-12-22T01:53:34;21.80;;;1.90;;
76393;SDS011;65216;51.090;-115.352;2023-12-22T01:56:02;17.70;;;2.00;;
76393;SDS011;65216;51.090;-115.352;2023-12-22T01:58:30;25.10;;;2.70;;
76393;SDS011;65216;51.090;-115.352;2023-12-22T02:01:01;21.80;;;2.40;;
76393;SDS011;65216;51.090;-115.352;2023-12-22T02:03:30;19.30;;;1.80;;
76393;SDS011;65216;51.090;-115.352;2023-12-22T02:05:59;22.10;;;1.80;;
76393;SDS011;65216;51.090;-115.352;2023-12-22T02:08:26;23.10;;;3.10;;
76393;SDS011;65216;51.090;-115.352;2023-12-22T02:10:58;18.60;;;2.00;;
76393;SDS011;65216;51.090;-115.352;2023-12-22T02:13:25;19.60;;;2.70;;
76393;SDS011;65216;51.090;-115.352;2023-12-22T02:16:00;24.90;;;2.20;;
76393;SDS011;65216;51.090;-115.352;2023-12-22T02:18:35;18.60;;;1.80;;
76393;SDS011;65216;51.090;-115.352;2023-12-22T02:21:09;18.80;;;2.60;;
76393;SDS011;65216;51.090;-115.352;2023-12-22T02:23:35;19.40;;;2.20;;
76393;SDS011;65216;51.090;-115.352;2023-12-22T02:26:10;16.10;;;2.00;;
76393;SDS011;65216;51.090;-115.352;2023-12-22T02:28:45;18.90;;;2.10;;
76393;SDS011;65216;51.090;-115.352;2023-12-22T02:31:24;17.40;;;1.90;;
76393;SDS011;65216;51.090;-115.352;2023-12-22T02:34:02;18.50;;;1.90;;
76393;SDS011;65216;51.090;-115.352;2023-12-22T02:36:36;18.40;;;2.40;;
76393;SDS011;65216;51.090;-115.352;2023-12-22T02:39:07;15.50;;;2.10;;
76393;SDS011;65216;51.090;-115.352;2023-12-22T02:41:36;20.90;;;2.50;;
76393;SDS011;65216;51.090;-115.352;2023-12-22T02:44:04;21.40;;;2.70;;
76393;SDS011;65216;51.090;-115.352;2023-12-22T02:46:31;16.50;;;2.40;;
76393;SDS011;65216;51.090;-115.352;2023-12-22T02:48:58;21.90;;;2.10;;
76393;SDS011;65216;51.090;-115.352;2023-12-22T02:51:25;18.50;;;1.90;;
76393;SDS011;65216;51.090;-115.352;2023-12-22T02:53:51;16.10;;;1.90;;
76393;SDS011;65216;51.090;-115.352;2023-12-22T02:56:18;24.70;;;2.00;;
76393;SDS011;65216;51.090;-115.352;2023-12-22T02:58:45;19.80;;;2.10;;
76393;SDS011;65216;51.090;-115.352;2023-12-22T03:01:12;26.50;;;2.10;;
76393;SDS011;65216;51.090;-115.352;2023-12-22T03:03:39;25.90;;;2.60;;
76393;SDS011;65216;51.090;-115.352;2023-12-22T03:06:05;28.20;;;2.50;;
76393;SDS011;65216;51.090;-115.352;2023-12-22T03:08:32;21.80;;;1.90;;
76393;SDS011;65216;51.090;-115.352;2023-12-22T03:10:59;16.80;;;2.00;;
76393;SDS011;65216;51.090;-115.352;2023-12-22T03:13:26;17.70;;;2.20;;
76393;SDS011;65216;51.090;-115.352;2023-12-22T03:15:53;22.50;;;2.50;;
76393;SDS011;65216;51.090;-115.352;2023-12-22T03:18:22;23.30;;;2.80;;
76393;SDS011;65216;51.090;-115.352;2023-12-22T03:20:49;19.60;;;1.90;;
76393;SDS011;65216;51.090;-115.352;2023-12-22T03:23:16;20.50;;;2.10;;
76393;SDS011;65216;51.090;-115.352;2023-12-22T03:25:42;27.40;;;2.10;;
76393;SDS011;65216;51.090;-115.352;2023-12-22T03:28:09;20.70;;;2.60;;
76393;SDS011;65216;51.090;-115.352;2023-12-22T03:30:36;25.80;;;2.20;;
76393;SDS011;65216;51.090;-115.352;2023-12-22T03:33:04;21.60;;;2.30;;
76393;SDS011;65216;51.090;-115.352;2023-12-22T03:35:33;20.90;;;2.00;;
76393;SDS011;65216;51.090;-115.352;2023-12-22T03:38:00;23.10;;;2.00;;
76393;SDS011;65216;51.090;-115.352;2023-12-22T03:40:27;22.70;;;2.30;;
76393;SDS011;65216;51.090;-115.352;2023-12-22T03:42:54;23.30;;;2.40;;
76393;SDS011;65216;51.090;-115.352;2023-12-22T03:45:22;19.10;;;1.90;;
76393;SDS011;65216;51.090;-115.352;2023-12-22T03:47:48;19.70;;;2.00;;
76393;SDS011;65216;51.090;-115.352;2023-12-22T03:50:15;18.40;;;2.50;;
76393;SDS011;65216;51.090;-115.352;2023-12-22T03:52:42;24.00;;;2.00;;
76393;SDS011;65216;51.090;-115.352;2023-12-22T03:55:09;23.60;;;2.30;;
76393;SDS011;65216;51.090;-115.352;2023-12-22T03:57:35;22.00;;;2.40;;
76393;SDS011;65216;51.090;-115.352;2023-12-22T04:00:02;19.20;;;2.20;;
76393;SDS011;65216;51.090;-115.352;2023-12-22T04:02:30;21.00;;;2.30;;
76393;SDS011;65216;51.090;-115.352;2023-12-22T04:04:59;19.20;;;2.40;;
76393;SDS011;65216;51.090;-115.352;2023-12-22T04:07:25;19.30;;;2.30;;
76393;SDS011;65216;51.090;-115.352;2023-12-22T04:09:52;16.20;;;1.80;;
76393;SDS011;65216;51.090;-115.352;2023-12-22T04:12:19;19.80;;;2.20;;
76393;SDS011;65216;51.090;-115.352;2023-12-22T04:14:46;13.50;;;1.90;;
76393;SDS011;65216;51.090;-115.352;2023-12-22T04:17:12;25.70;;;2.20;;
76393;SDS011;65216;51.090;-115.352;2023-12-22T04:19:39;14.10;;;1.80;;
76393;SDS011;65216;51.090;-115.352;2023-12-22T04:22:06;21.20;;;2.10;;
76393;SDS011;65216;51.090;-115.352;2023-12-22T04:24:33;13.00;;;1.50;;
76393;SDS011;65216;51.090;-115.352;2023-12-22T04:27:00;18.00;;;1.70;;
76393;SDS011;65216;51.090;-115.352;2023-12-22T04:29:29;10.80;;;1.30;;
76393;SDS011;65216;51.090;-115.352;2023-12-22T04:31:55;10.10;;;1.20;;
76393;SDS011;65216;51.090;-115.352;2023-12-22T04:34:22;15.30;;;1.60;;
76393;SDS011;65216;51.090;-115.352;2023-12-22T04:36:49;10.00;;;1.20;;
76393;SDS011;65216;51.090;-115.352;2023-12-22T04:39:16;11.60;;;1.00;;
76393;SDS011;65216;51.090;-115.352;2023-12-22T04:41:42;8.90;;;1.20;;
76393;SDS011;65216;51.090;-115.352;2023-12-22T04:44:09;7.20;;;0.90;;
76393;SDS011;65216;51.090;-115.352;2023-12-22T04:46:36;3.90;;;1.00;;
76393;SDS011;65216;51.090;-115.352;2023-12-22T04:49:05;6.40;;;0.90;;
76393;SDS011;65216;51.090;-115.352;2023-12-22T04:51:32;12.10;;;1.00;;
76393;SDS011;65216;51.090;-115.352;2023-12-22T04:53:58;12.50;;;1.30;;
76393;SDS011;65216;51.090;-115.352;2023-12-22T04:56:26;6.80;;;0.90;;
76393;SDS011;65216;51.090;-115.352;2023-12-22T04:58:53;6.10;;;1.00;;
76393;SDS011;65216;51.090;-115.352;2023-12-22T05:01:22;11.60;;;1.10;;
76393;SDS011;65216;51.090;-115.352;2023-12-22T05:03:49;6.80;;;0.80;;
76393;SDS011;65216;51.090;-115.352;2023-12-22T05:06:16;3.80;;;0.70;;
76393;SDS011;65216;51.090;-115.352;2023-12-22T05:08:43;6.60;;;0.70;;
76393;SDS011;65216;51.090;-115.352;2023-12-22T05:11:13;6.70;;;1.00;;
76393;SDS011;65216;51.090;-115.352;2023-12-22T05:13:39;5.30;;;0.70;;
76393;SDS011;65216;51.090;-115.352;2023-12-22T05:16:08;9.00;;;1.00;;
76393;SDS011;65216;51.090;-115.352;2023-12-22T05:18:35;5.60;;;0.70;;
76393;SDS011;65216;51.090;-115.352;2023-12-22T05:21:02;6.20;;;0.70;;
76393;SDS011;65216;51.090;-115.352;2023-12-22T05:23:29;6.30;;;1.10;;
76393;SDS011;65216;51.090;-115.352;2023-12-22T05:25:56;5.00;;;0.70;;
76393;SDS011;65216;51.090;-115.352;2023-12-22T05:28:23;2.60;;;0.60;;
76393;SDS011;65216;51.090;-115.352;2023-12-22T05:30:50;4.70;;;0.70;;
76393;SDS011;65216;51.090;-115.352;2023-12-22T05:33:21;2.40;;;0.60;;
76393;SDS011;65216;51.090;-115.352;2023-12-22T05:35:48;2.10;;;0.50;;
76393;SDS011;65216;51.090;-115.352;2023-12-22T05:38:14;2.40;;;0.50;;
76393;SDS011;65216;51.090;-115.352;2023-12-22T05:40:47;3.40;;;0.80;;
76393;SDS011;65216;51.090;-115.352;2023-12-22T05:43:14;1.80;;;0.60;;
76393;SDS011;65216;51.090;-115.352;2023-12-22T05:45:40;2.50;;;0.50;;
76393;SDS011;65216;51.090;-115.352;2023-12-22T05:48:07;3.50;;;0.40;;
76393;SDS011;65216;51.090;-115.352;2023-12-22T05:50:34;1.80;;;0.40;;
76393;SDS011;65216;51.090;-115.352;2023-12-22T05:53:01;2.50;;;0.60;;
76393;SDS011;65216;51.090;-115.352;2023-12-22T05:55:28;1.90;;;0.70;;
76393;SDS011;65216;51.090;-115.352;2023-12-22T05:57:55;2.10;;;0.50;;
76393;SDS011;65216;51.090;-115.352;2023-12-22T06:00:22;2.10;;;0.70;;
76393;SDS011;65216;51.090;-115.352;2023-12-22T06:02:49;1.80;;;0.50;;
76393;SDS011;65216;51.090;-115.352;2023-12-22T06:05:15;1.80;;;0.50;;
76393;SDS011;65216;51.090;-115.352;2023-12-22T06:07:42;1.90;;;0.70;;
76393;SDS011;65216;51.090;-115.352;2023-12-22T06:10:09;1.90;;;0.40;;
76393;SDS011;65216;51.090;-115.352;2023-12-22T06:12:36;1.70;;;0.40;;
76393;SDS011;65216;51.090;-115.352;2023-12-22T06:15:05;1.00;;;0.40;;
76393;SDS011;65216;51.090;-115.352;2023-12-22T06:17:35;4.10;;;0.80;;
76393;SDS011;65216;51.090;-115.352;2023-12-22T06:20:02;1.40;;;0.50;;
76393;SDS011;65216;51.090;-115.352;2023-12-22T06:22:29;2.10;;;0.50;;
76393;SDS011;65216;51.090;-115.352;2023-12-22T06:24:56;2.90;;;0.70;;
76393;SDS011;65216;51.090;-115.352;2023-12-22T06:27:22;2.40;;;0.50;;
76393;SDS011;65216;51.090;-115.352;2023-12-22T06:29:54;2.80;;;0.60;;
76393;SDS011;65216;51.090;-115.352;2023-12-22T06:32:22;3.20;;;0.90;;
76393;SDS011;65216;51.090;-115.352;2023-12-22T06:34:49;1.90;;;0.40;;
76393;SDS011;65216;51.090;-115.352;2023-12-22T06:37:15;4.30;;;0.70;;
76393;SDS011;65216;51.090;-115.352;2023-12-22T06:39:42;2.90;;;0.40;;
76393;SDS011;65216;51.090;-115.352;2023-12-22T06:42:09;1.50;;;0.60;;
76393;SDS011;65216;51.090;-115.352;2023-12-22T06:44:41;4.90;;;0.90;;
76393;SDS011;65216;51.090;-115.352;2023-12-22T06:47:10;2.70;;;0.80;;
76393;SDS011;65216;51.090;-115.352;2023-12-22T06:49:37;4.40;;;0.70;;
76393;SDS011;65216;51.090;-115.352;2023-12-22T06:52:05;3.60;;;0.50;;
76393;SDS011;65216;51.090;-115.352;2023-12-22T06:54:31;1.90;;;0.60;;
76393;SDS011;65216;51.090;-115.352;2023-12-22T06:56:59;1.30;;;0.60;;
76393;SDS011;65216;51.090;-115.352;2023-12-22T06:59:26;2.60;;;0.50;;
76393;SDS011;65216;51.090;-115.352;2023-12-22T07:01:53;1.70;;;0.60;;
76393;SDS011;65216;51.090;-115.352;2023-12-22T07:07:32;2.00;;;0.40;;
76393;SDS011;65216;51.090;-115.352;2023-12-22T07:09:59;3.10;;;0.70;;
76393;SDS011;65216;51.090;-115.352;2023-12-22T07:12:26;2.00;;;0.50;;
76393;SDS011;65216;51.090;-115.352;2023-12-22T07:14:56;3.30;;;0.50;;
76393;SDS011;65216;51.090;-115.352;2023-12-22T07:17:25;3.00;;;0.50;;
76393;SDS011;65216;51.090;-115.352;2023-12-22T07:19:52;2.40;;;0.50;;
76393;SDS011;65216;51.090;-115.352;2023-12-22T07:22:23;2.10;;;0.50;;
76393;SDS011;65216;51.090;-115.352;2023-12-22T07:24:50;1.50;;;0.50;;
76393;SDS011;65216;51.090;-115.352;2023-12-22T07:27:18;2.70;;;0.70;;
76393;SDS011;65216;51.090;-115.352;2023-12-22T07:29:48;6.00;;;0.70;;
76393;SDS011;65216;51.090;-115.352;2023-12-22T07:32:15;3.00;;;0.50;;
76393;SDS011;65216;51.090;-115.352;2023-12-22T07:34:42;1.70;;;0.60;;
76393;SDS011;65216;51.090;-115.352;2023-12-22T07:37:09;3.10;;;0.50;;
76393;SDS011;65216;51.090;-115.352;2023-12-22T07:39:36;1.30;;;0.40;;
76393;SDS011;65216;51.090;-115.352;2023-12-22T07:42:03;3.00;;;0.50;;
76393;SDS011;65216;51.090;-115.352;2023-12-22T07:44:30;2.90;;;0.50;;
76393;SDS011;65216;51.090;-115.352;2023-12-22T07:46:58;2.20;;;0.50;;
76393;SDS011;65216;51.090;-115.352;2023-12-22T07:49:26;1.20;;;0.40;;
76393;SDS011;65216;51.090;-115.352;2023-12-22T07:51:55;2.00;;;0.30;;
76393;SDS011;65216;51.090;-115.352;2023-12-22T07:54:21;4.30;;;0.40;;
76393;SDS011;65216;51.090;-115.352;2023-12-22T07:56:48;2.20;;;0.40;;
76393;SDS011;65216;51.090;-115.352;2023-12-22T07:59:15;1.80;;;0.40;;
76393;SDS011;65216;51.090;-115.352;2023-12-22T08:01:42;2.80;;;0.40;;
76393;SDS011;65216;51.090;-115.352;2023-12-22T08:04:09;1.80;;;0.40;;
76393;SDS011;65216;51.090;-115.352;2023-12-22T08:06:35;2.60;;;0.20;;
76393;SDS011;65216;51.090;-115.352;2023-12-22T08:09:02;1.50;;;0.40;;
76393;SDS011;65216;51.090;-115.352;2023-12-22T08:11:29;2.20;;;0.40;;
76393;SDS011;65216;51.090;-115.352;2023-12-22T08:13:58;2.40;;;0.50;;
76393;SDS011;65216;51.090;-115.352;2023-12-22T08:16:25;2.10;;;0.40;;
76393;SDS011;65216;51.090;-115.352;2023-12-22T08:18:54;2.60;;;0.40;;
76393;SDS011;65216;51.090;-115.352;2023-12-22T08:21:20;1.20;;;0.30;;
76393;SDS011;65216;51.090;-115.352;2023-12-22T08:23:47;0.40;;;0.20;;
76393;SDS011;65216;51.090;-115.352;2023-12-22T08:26:14;1.20;;;0.40;;
76393;SDS011;65216;51.090;-115.352;2023-12-22T08:28:43;2.40;;;0.40;;
76393;SDS011;65216;51.090;-115.352;2023-12-22T08:31:09;2.40;;;0.30;;
76393;SDS011;65216;51.090;-115.352;2023-12-22T08:33:38;1.70;;;0.30;;
76393;SDS011;65216;51.090;-115.352;2023-12-22T08:36:10;0.30;;;0.10;;
76393;SDS011;65216;51.090;-115.352;2023-12-22T08:38:38;1.30;;;0.20;;
76393;SDS011;65216;51.090;-115.352;2023-12-22T08:41:12;0.20;;;0.20;;
76393;SDS011;65216;51.090;-115.352;2023-12-22T08:43:40;0.50;;;0.20;;
76393;SDS011;65216;51.090;-115.352;2023-12-22T08:46:08;0.80;;;0.10;;
76393;SDS011;65216;51.090;-115.352;2023-12-22T08:48:35;1.40;;;0.40;;
76393;SDS011;65216;51.090;-115.352;2023-12-22T08:51:02;1.10;;;0.20;;
76393;SDS011;65216;51.090;-115.352;2023-12-22T08:53:33;0.30;;;0.10;;
76393;SDS011;65216;51.090;-115.352;2023-12-22T08:56:03;1.90;;;0.30;;
76393;SDS011;65216;51.090;-115.352;2023-12-22T08:58:31;0.30;;;0.10;;
76393;SDS011;65216;51.090;-115.352;2023-12-22T09:00:58;0.00;;;0.00;;
76393;SDS011;65216;51.090;-115.352;2023-12-22T09:03:25;0.70;;;0.20;;
76393;SDS011;65216;51.090;-115.352;2023-12-22T09:05:56;0.40;;;0.10;;
76393;SDS011;65216;51.090;-115.352;2023-12-22T09:08:23;0.10;;;0.10;;
76393;SDS011;65216;51.090;-115.352;2023-12-22T09:10:49;1.00;;;0.10;;
76393;SDS011;65216;51.090;-115.352;2023-12-22T09:15:50;1.80;;;0.30;;
76393;SDS011;65216;51.090;-115.352;2023-12-22T09:18:17;0.30;;;0.10;;
76393;SDS011;65216;51.090;-115.352;2023-12-22T09:20:44;0.50;;;0.10;;
76393;SDS011;65216;51.090;-115.352;2023-12-22T09:23:11;0.80;;;0.20;;
76393;SDS011;65216;51.090;-115.352;2023-12-22T09:25:39;0.60;;;0.10;;
76393;SDS011;65216;51.090;-115.352;2023-12-22T09:28:06;0.10;;;0.00;;
76393;SDS011;65216;51.090;-115.352;2023-12-22T09:30:33;0.20;;;0.00;;
76393;SDS011;65216;51.090;-115.352;2023-12-22T09:33:00;0.30;;;0.00;;
76393;SDS011;65216;51.090;-115.352;2023-12-22T09:35:27;0.20;;;0.10;;
76393;SDS011;65216;51.090;-115.352;2023-12-22T09:37:54;1.20;;;0.20;;
76393;SDS011;65216;51.090;-115.352;2023-12-22T09:40:21;1.30;;;0.30;;
76393;SDS011;65216;51.090;-115.352;2023-12-22T09:42:48;0.70;;;0.20;;
76393;SDS011;65216;51.090;-115.352;2023-12-22T09:45:17;1.00;;;0.10;;
76393;SDS011;65216;51.090;-115.352;2023-12-22T09:47:48;0.20;;;0.00;;
76393;SDS011;65216;51.090;-115.352;2023-12-22T09:50:16;0.20;;;0.10;;
76393;SDS011;65216;51.090;-115.352;2023-12-22T09:52:48;0.10;;;0.00;;
76393;SDS011;65216;51.090;-115.352;2023-12-22T09:55:15;0.40;;;0.10;;
76393;SDS011;65216;51.090;-115.352;2023-12-22T09:57:45;0.00;;;0.00;;
76393;SDS011;65216;51.090;-115.352;2023-12-22T10:00:14;0.20;;;0.10;;
76393;SDS011;65216;51.090;-115.352;2023-12-22T10:02:42;0.10;;;0.10;;
76393;SDS011;65216;51.090;-115.352;2023-12-22T10:05:11;0.90;;;0.10;;
76393;SDS011;65216;51.090;-115.352;2023-12-22T10:07:45;0.00;;;0.00;;
76393;SDS011;65216;51.090;-115.352;2023-12-22T10:10:13;0.40;;;0.10;;
76393;SDS011;65216;51.090;-115.352;2023-12-22T10:12:45;0.90;;;0.10;;
76393;SDS011;65216;51.090;-115.352;2023-12-22T10:15:13;0.00;;;0.00;;
76393;SDS011;65216;51.090;-115.352;2023-12-22T10:17:44;0.00;;;0.00;;
76393;SDS011;65216;51.090;-115.352;2023-12-22T10:20:11;0.40;;;0.10;;
76393;SDS011;65216;51.090;-115.352;2023-12-22T10:22:38;0.00;;;0.00;;
76393;SDS011;65216;51.090;-115.352;2023-12-22T10:25:05;0.10;;;0.00;;
76393;SDS011;65216;51.090;-115.352;2023-12-22T10:27:35;0.20;;;0.10;;
76393;SDS011;65216;51.090;-115.352;2023-12-22T10:30:03;0.50;;;0.10;;
76393;SDS011;65216;51.090;-115.352;2023-12-22T10:32:30;0.10;;;0.10;;
76393;SDS011;65216;51.090;-115.352;2023-12-22T10:34:57;0.00;;;0.00;;
76393;SDS011;65216;51.090;-115.352;2023-12-22T10:37:24;0.00;;;0.00;;
76393;SDS011;65216;51.090;-115.352;2023-12-22T10:39:54;0.00;;;0.00;;
76393;SDS011;65216;51.090;-115.352;2023-12-22T10:42:21;0.10;;;0.00;;
76393;SDS011;65216;51.090;-115.352;2023-12-22T10:44:48;0.00;;;0.00;;
76393;SDS011;65216;51.090;-115.352;2023-12-22T10:47:17;0.50;;;0.10;;
76393;SDS011;65216;51.090;-115.352;2023-12-22T10:49:46;1.20;;;0.30;;
76393;SDS011;65216;51.090;-115.352;2023-12-22T10:52:17;0.50;;;0.10;;
76393;SDS011;65216;51.090;-115.352;2023-12-22T10:54:45;0.10;;;0.00;;
76393;SDS011;65216;51.090;-115.352;2023-12-22T10:57:12;0.20;;;0.20;;
76393;SDS011;65216;51.090;-115.352;2023-12-22T10:59:44;0.30;;;0.10;;
76393;SDS011;65216;51.090;-115.352;2023-12-22T11:02:18;0.50;;;0.00;;
76393;SDS011;65216;51.090;-115.352;2023-12-22T11:07:24;0.10;;;0.10;;
76393;SDS011;65216;51.090;-115.352;2023-12-22T11:09:53;0.10;;;0.10;;
76393;SDS011;65216;51.090;-115.352;2023-12-22T11:12:24;0.20;;;0.20;;
76393;SDS011;65216;51.090;-115.352;2023-12-22T11:14:55;0.40;;;0.10;;
76393;SDS011;65216;51.090;-115.352;2023-12-22T11:17:23;0.10;;;0.10;;
76393;SDS011;65216;51.090;-115.352;2023-12-22T11:19:56;1.70;;;0.10;;
76393;SDS011;65216;51.090;-115.352;2023-12-22T11:22:24;0.90;;;0.10;;
76393;SDS011;65216;51.090;-115.352;2023-12-22T11:24:53;0.00;;;0.00;;
76393;SDS011;65216;51.090;-115.352;2023-12-22T11:27:23;0.10;;;0.00;;
76393;SDS011;65216;51.090;-115.352;2023-12-22T11:29:53;0.30;;;0.10;;
76393;SDS011;65216;51.090;-115.352;2023-12-22T11:32:20;0.10;;;0.10;;
76393;SDS011;65216;51.090;-115.352;2023-12-22T11:34:48;0.10;;;0.00;;
76393;SDS011;65216;51.090;-115.352;2023-12-22T11:37:18;0.00;;;0.00;;
76393;SDS011;65216;51.090;-115.352;2023-12-22T11:39:45;0.20;;;0.00;;
76393;SDS011;65216;51.090;-115.352;2023-12-22T11:42:17;0.10;;;0.10;;
76393;SDS011;65216;51.090;-115.352;2023-12-22T11:44:47;0.00;;;0.00;;
76393;SDS011;65216;51.090;-115.352;2023-12-22T11:47:14;0.00;;;0.00;;
76393;SDS011;65216;51.090;-115.352;2023-12-22T11:49:44;0.20;;;0.20;;
76393;SDS011;65216;51.090;-115.352;2023-12-22T11:52:17;0.20;;;0.00;;
76393;SDS011;65216;51.090;-115.352;2023-12-22T12:00:02;0.00;;;0.00;;
76393;SDS011;65216;51.090;-115.352;2023-12-22T12:02:32;0.00;;;0.00;;
76393;SDS011;65216;51.090;-115.352;2023-12-22T12:05:04;0.20;;;0.10;;
76393;SDS011;65216;51.090;-115.352;2023-12-22T12:15:36;0.10;;;0.00;;
76393;SDS011;65216;51.090;-115.352;2023-12-22T12:18:05;0.00;;;0.00;;
76393;SDS011;65216;51.090;-115.352;2023-12-22T12:20:32;0.00;;;0.00;;
76393;SDS011;65216;51.090;-115.352;2023-12-22T12:23:01;0.00;;;0.00;;
76393;SDS011;65216;51.090;-115.352;2023-12-22T12:25:29;0.00;;;0.00;;
76393;SDS011;65216;51.090;-115.352;2023-12-22T12:28:08;0.00;;;0.00;;
76393;SDS011;65216;51.090;-115.352;2023-12-22T12:30:39;0.30;;;0.10;;
76393;SDS011;65216;51.090;-115.352;2023-12-22T12:33:10;0.10;;;0.00;;
76393;SDS011;65216;51.090;-115.352;2023-12-22T12:35:38;0.30;;;0.10;;
76393;SDS011;65216;51.090;-115.352;2023-12-22T12:38:06;0.20;;;0.00;;
76393;SDS011;65216;51.090;-115.352;2023-12-22T12:40:36;0.20;;;0.00;;
76393;SDS011;65216;51.090;-115.352;2023-12-22T12:43:06;0.30;;;0.00;;
76393;SDS011;65216;51.090;-115.352;2023-12-22T12:45:32;0.20;;;0.00;;
76393;SDS011;65216;51.090;-115.352;2023-12-22T12:48:02;0.10;;;0.00;;
76393;SDS011;65216;51.090;-115.352;2023-12-22T12:50:29;0.00;;;0.00;;
76393;SDS011;65216;51.090;-115.352;2023-12-22T12:52:57;0.10;;;0.10;;
76393;SDS011;65216;51.090;-115.352;2023-12-22T12:55:25;0.20;;;0.10;;
76393;SDS011;65216;51.090;-115.352;2023-12-22T12:57:54;0.00;;;0.00;;
76393;SDS011;65216;51.090;-115.352;2023-12-22T13:02:55;0.20;;;0.00;;
76393;SDS011;65216;51.090;-115.352;2023-12-22T13:05:23;0.30;;;0.00;;
76393;SDS011;65216;51.090;-115.352;2023-12-22T13:07:50;0.10;;;0.00;;
76393;SDS011;65216;51.090;-115.352;2023-12-22T13:10:24;0.00;;;0.00;;
76393;SDS011;65216;51.090;-115.352;2023-12-22T13:12:53;0.00;;;0.00;;
76393;SDS011;65216;51.090;-115.352;2023-12-22T13:15:20;0.00;;;0.00;;
76393;SDS011;65216;51.090;-115.352;2023-12-22T13:17:47;0.10;;;0.10;;
76393;SDS011;65216;51.090;-115.352;2023-12-22T13:20:15;1.00;;;0.10;;
76393;SDS011;65216;51.090;-115.352;2023-12-22T13:22:42;0.00;;;0.00;;
76393;SDS011;65216;51.090;-115.352;2023-12-22T13:25:10;0.00;;;0.00;;
76393;SDS011;65216;51.090;-115.352;2023-12-22T13:27:51;0.20;;;0.00;;
76393;SDS011;65216;51.090;-115.352;2023-12-22T13:30:36;0.10;;;0.00;;
76393;SDS011;65216;51.090;-115.352;2023-12-22T13:33:07;0.10;;;0.10;;
76393;SDS011;65216;51.090;-115.352;2023-12-22T13:35:37;0.10;;;0.10;;
76393;SDS011;65216;51.090;-115.352;2023-12-22T13:38:07;0.20;;;0.10;;
76393;SDS011;65216;51.090;-115.352;2023-12-22T13:40:35;0.90;;;0.10;;
76393;SDS011;65216;51.090;-115.352;2023-12-22T13:43:04;0.00;;;0.00;;
76393;SDS011;65216;51.090;-115.352;2023-12-22T13:45:33;0.20;;;0.10;;
76393;SDS011;65216;51.090;-115.352;2023-12-22T13:48:02;0.30;;;0.00;;
76393;SDS011;65216;51.090;-115.352;2023-12-22T13:50:30;0.10;;;0.10;;
76393;SDS011;65216;51.090;-115.352;2023-12-22T13:53:10;0.00;;;0.00;;
76393;SDS011;65216;51.090;-115.352;2023-12-22T13:55:37;0.00;;;0.00;;
76393;SDS011;65216;51.090;-115.352;2023-12-22T13:58:04;0.00;;;0.00;;
76393;SDS011;65216;51.090;-115.352;2023-12-22T14:00:31;0.00;;;0.00;;
76393;SDS011;65216;51.090;-115.352;2023-12-22T14:03:01;0.10;;;0.10;;
76393;SDS011;65216;51.090;-115.352;2023-12-22T14:05:28;0.10;;;0.00;;
76393;SDS011;65216;51.090;-115.352;2023-12-22T14:07:56;0.80;;;0.10;;
76393;SDS011;65216;51.090;-115.352;2023-12-22T14:10:22;0.00;;;0.00;;
76393;SDS011;65216;51.090;-115.352;2023-12-22T14:12:49;0.10;;;0.00;;
76393;SDS011;65216;51.090;-115.352;2023-12-22T14:15:16;0.00;;;0.00;;
76393;SDS011;65216;51.090;-115.352;2023-12-22T14:17:43;0.00;;;0.00;;
76393;SDS011;65216;51.090;-115.352;2023-12-22T14:20:13;0.30;;;0.10;;
76393;SDS011;65216;51.090;-115.352;2023-12-22T14:22:40;0.00;;;0.00;;
76393;SDS011;65216;51.090;-115.352;2023-12-22T14:25:11;0.20;;;0.10;;
76393;SDS011;65216;51.090;-115.352;2023-12-22T14:27:40;0.70;;;0.00;;
76393;SDS011;65216;51.090;-115.352;2023-12-22T14:30:08;0.00;;;0.00;;
76393;SDS011;65216;51.090;-115.352;2023-12-22T14:32:39;0.00;;;0.00;;
76393;SDS011;65216;51.090;-115.352;2023-12-22T14:35:09;0.10;;;0.10;;